createdAt,value
2018-07-14T00:01:04.208Z,18.84
2018-07-14T00:03:32.685Z,18.83
2018-07-14T00:06:01.042Z,18.77
2018-07-14T00:08:29.368Z,18.76
2018-07-14T00:10:57.700Z,18.75
2018-07-14T00:13:26.035Z,18.73
2018-07-14T00:15:54.546Z,18.74
2018-07-14T00:18:22.950Z,18.70
2018-07-14T00:20:51.545Z,18.69
2018-07-14T00:23:19.864Z,18.63
2018-07-14T00:25:53.391Z,18.61
2018-07-14T00:28:21.717Z,18.57
2018-07-14T00:30:50.037Z,18.52
2018-07-14T00:33:18.435Z,18.51
2018-07-14T00:35:46.753Z,18.44
2018-07-14T00:38:15.132Z,18.40
2018-07-14T00:40:43.450Z,18.39
2018-07-14T00:43:12.148Z,18.34
2018-07-14T00:45:40.621Z,18.29
2018-07-14T00:48:08.957Z,18.21
2018-07-14T00:50:37.301Z,18.16
2018-07-14T00:53:05.905Z,18.10
2018-07-14T00:55:34.280Z,18.08
2018-07-14T00:58:02.648Z,18.05
2018-07-14T01:00:31.027Z,18.06
2018-07-14T01:02:59.399Z,18.05
2018-07-14T01:05:27.772Z,18.05
2018-07-14T01:07:56.199Z,18.04
2018-07-14T01:10:24.562Z,17.99
2018-07-14T01:12:52.892Z,17.99
2018-07-14T01:15:21.226Z,17.98
2018-07-14T01:17:49.615Z,17.92
2018-07-14T01:20:17.912Z,17.89
2018-07-14T01:22:46.261Z,17.86
2018-07-14T01:25:14.570Z,17.86
2018-07-14T01:27:42.901Z,17.87
2018-07-14T01:30:11.446Z,17.80
2018-07-14T01:32:39.757Z,17.73
2018-07-14T01:35:08.573Z,17.68
2018-07-14T01:37:37.056Z,17.65
2018-07-14T01:40:05.417Z,17.60
2018-07-14T01:42:33.829Z,17.54
2018-07-14T01:45:02.182Z,17.49
2018-07-14T01:47:30.535Z,17.45
2018-07-14T01:49:58.869Z,17.43
2018-07-14T01:52:27.295Z,17.42
2018-07-14T01:54:55.882Z,17.40
2018-07-14T01:57:24.197Z,17.36
2018-07-14T01:59:52.514Z,17.30
2018-07-14T02:02:20.829Z,17.26
2018-07-14T02:04:49.180Z,17.23
2018-07-14T02:07:17.499Z,17.18
2018-07-14T02:09:45.895Z,17.14
2018-07-14T02:12:14.205Z,17.12
2018-07-14T02:14:42.572Z,17.11
2018-07-14T02:17:11.080Z,17.10
2018-07-14T02:19:39.524Z,17.07
2018-07-14T02:22:07.895Z,17.04
2018-07-14T02:24:36.243Z,17.01
2018-07-14T02:27:04.591Z,17.03
2018-07-14T02:29:32.942Z,16.99
2018-07-14T02:32:01.272Z,16.97
2018-07-14T02:34:29.633Z,16.97
2018-07-14T02:36:57.952Z,16.93
2018-07-14T02:39:26.376Z,16.90
2018-07-14T02:41:54.724Z,16.90
2018-07-14T02:44:23.108Z,16.90
2018-07-14T02:46:51.537Z,16.89
2018-07-14T02:49:19.879Z,16.83
2018-07-14T02:51:48.227Z,16.74
2018-07-14T02:54:16.549Z,16.67
2018-07-14T02:56:44.906Z,16.56
2018-07-14T02:59:13.444Z,16.52
2018-07-14T03:01:41.797Z,16.52
2018-07-14T03:04:10.323Z,16.50
2018-07-14T03:06:38.741Z,16.50
2018-07-14T03:09:07.803Z,16.46
2018-07-14T03:11:36.120Z,16.46
2018-07-14T03:14:04.518Z,16.47
2018-07-14T03:16:32.879Z,16.47
2018-07-14T03:19:01.233Z,16.48
2018-07-14T03:21:29.567Z,16.46
2018-07-14T03:23:57.905Z,16.43
2018-07-14T03:26:26.443Z,16.43
2018-07-14T03:28:54.830Z,16.43
2018-07-14T03:31:23.301Z,16.41
2018-07-14T03:33:51.631Z,16.42
2018-07-14T03:36:19.983Z,16.42
2018-07-14T03:38:48.334Z,16.41
2018-07-14T03:41:16.942Z,16.42
2018-07-14T03:43:45.284Z,16.43
2018-07-14T03:46:13.633Z,16.43
2018-07-14T03:48:42.038Z,16.46
2018-07-14T03:51:10.524Z,16.46
2018-07-14T03:53:38.914Z,16.48
2018-07-14T03:56:07.258Z,16.48
2018-07-14T03:58:35.639Z,16.49
2018-07-14T04:01:04.002Z,16.51
2018-07-14T04:03:32.334Z,16.55
2018-07-14T04:06:00.754Z,16.59
2018-07-14T04:08:29.228Z,16.65
2018-07-14T04:10:57.556Z,16.80
2018-07-14T04:13:25.888Z,17.03
2018-07-14T04:15:54.258Z,17.32
2018-07-14T04:18:22.601Z,17.67
2018-07-14T04:20:50.945Z,17.96
2018-07-14T04:23:19.289Z,18.25
2018-07-14T04:25:47.644Z,18.52
2018-07-14T04:28:15.986Z,18.76
2018-07-14T04:30:44.328Z,19.09
2018-07-14T04:33:12.672Z,19.40
2018-07-14T04:35:41.031Z,19.70
2018-07-14T04:38:09.472Z,19.98
2018-07-14T04:40:38.005Z,20.24
2018-07-14T04:43:06.381Z,20.48
2018-07-14T04:45:34.692Z,20.67
2018-07-14T04:48:03.032Z,20.88
2018-07-14T04:50:31.434Z,21.05
2018-07-14T04:52:59.810Z,21.25
2018-07-14T04:55:28.152Z,21.41
2018-07-14T04:57:56.487Z,21.39
2018-07-14T05:00:24.968Z,21.51
2018-07-14T05:02:53.303Z,21.79
2018-07-14T05:05:21.695Z,22.00
2018-07-14T05:07:50.029Z,22.24
2018-07-14T05:10:18.543Z,22.39
2018-07-14T05:12:46.853Z,22.62
2018-07-14T05:15:15.247Z,22.70
2018-07-14T05:17:43.641Z,22.80
2018-07-14T05:20:11.953Z,22.78
2018-07-14T05:22:40.271Z,22.49
2018-07-14T05:25:08.656Z,22.24
2018-07-14T05:27:36.992Z,22.05
2018-07-14T05:30:05.656Z,21.83
2018-07-14T05:32:34.176Z,21.44
2018-07-14T05:35:02.518Z,21.56
2018-07-14T05:37:30.861Z,22.03
2018-07-14T05:39:59.194Z,22.63
2018-07-14T05:42:27.545Z,23.31
2018-07-14T05:44:55.877Z,23.87
2018-07-14T05:47:24.221Z,24.13
2018-07-14T05:49:52.528Z,24.30
2018-07-14T05:52:20.871Z,24.54
2018-07-14T05:54:49.241Z,24.64
2018-07-14T05:57:17.590Z,24.60
2018-07-14T05:59:45.886Z,24.34
2018-07-14T06:02:14.197Z,24.20
2018-07-14T06:04:42.547Z,24.13
2018-07-14T06:07:11.250Z,23.95
2018-07-14T06:09:39.581Z,23.60
2018-07-14T06:12:08.120Z,23.31
2018-07-14T06:14:36.475Z,23.18
2018-07-14T06:17:04.884Z,23.18
2018-07-14T06:19:33.229Z,23.21
2018-07-14T06:22:01.626Z,23.14
2018-07-14T06:24:30.610Z,23.11
2018-07-14T06:26:58.960Z,23.08
2018-07-14T06:29:27.301Z,23.03
2018-07-14T06:31:56.824Z,23.05
2018-07-14T06:34:25.076Z,23.04
2018-07-14T06:36:53.429Z,22.83
2018-07-14T06:39:21.821Z,22.62
2018-07-14T06:41:50.177Z,22.27
2018-07-14T06:44:18.575Z,22.05
2018-07-14T06:46:46.987Z,21.95
2018-07-14T06:49:15.328Z,21.81
2018-07-14T06:51:43.736Z,21.82
2018-07-14T06:54:12.199Z,21.86
2018-07-14T06:56:40.454Z,21.89
2018-07-14T06:59:08.907Z,21.89
2018-07-14T07:01:37.265Z,21.77
2018-07-14T07:04:05.616Z,21.63
2018-07-14T07:06:33.984Z,21.63
2018-07-14T07:09:02.365Z,21.59
2018-07-14T07:11:30.723Z,21.54
2018-07-14T07:13:59.430Z,21.49
2018-07-14T07:16:27.814Z,21.54
2018-07-14T07:18:56.252Z,21.68
2018-07-14T07:21:24.653Z,21.74
2018-07-14T07:23:52.965Z,21.69
2018-07-14T07:26:22.994Z,21.69
2018-07-14T07:28:52.181Z,21.77
2018-07-14T07:31:20.578Z,21.70
2018-07-14T07:33:49.085Z,21.66
2018-07-14T07:36:17.361Z,21.57
2018-07-14T07:38:45.784Z,21.51
2018-07-14T07:41:14.121Z,21.52
2018-07-14T07:43:43.377Z,21.63
2018-07-14T07:46:11.789Z,21.73
2018-07-14T07:48:40.113Z,21.67
2018-07-14T07:51:08.772Z,21.71
2018-07-14T07:53:37.094Z,21.67
2018-07-14T07:56:05.555Z,21.67
2018-07-14T07:58:33.881Z,21.78
2018-07-14T08:01:02.262Z,21.91
2018-07-14T08:03:30.596Z,21.97
2018-07-14T08:05:59.231Z,22.07
2018-07-14T08:08:27.601Z,21.98
2018-07-14T08:10:56.118Z,21.86
2018-07-14T08:13:24.463Z,21.83
2018-07-14T08:15:52.843Z,21.87
2018-07-14T08:18:21.396Z,21.95
2018-07-14T08:20:49.815Z,21.99
2018-07-14T08:23:18.346Z,22.12
2018-07-14T08:25:46.765Z,22.21
2018-07-14T08:28:15.145Z,22.27
2018-07-14T08:30:43.613Z,22.35
2018-07-14T08:33:12.951Z,22.44
2018-07-14T08:35:41.317Z,22.54
2018-07-14T08:38:09.787Z,22.58
2018-07-14T08:40:38.155Z,22.48
2018-07-14T08:43:06.525Z,22.45
2018-07-14T08:45:35.374Z,22.46
2018-07-14T08:48:03.780Z,22.50
2018-07-14T08:50:32.273Z,22.59
2018-07-14T08:53:00.789Z,22.56
2018-07-14T08:55:29.177Z,22.50
2018-07-14T08:57:57.537Z,22.54
2018-07-14T09:00:25.941Z,22.60
2018-07-14T09:02:54.322Z,22.68
2018-07-14T09:05:22.688Z,22.65
2018-07-14T09:07:51.441Z,22.59
2018-07-14T09:10:19.810Z,22.73
2018-07-14T09:12:48.351Z,22.84
2018-07-14T09:15:16.742Z,23.00
2018-07-14T09:17:45.060Z,23.00
2018-07-14T09:20:13.470Z,22.92
2018-07-14T09:22:41.876Z,22.86
2018-07-14T09:25:10.317Z,22.80
2018-07-14T09:27:38.977Z,22.86
2018-07-14T09:30:07.328Z,22.94
2018-07-14T09:32:35.725Z,22.94
2018-07-14T09:35:04.065Z,23.00
2018-07-14T09:37:32.424Z,23.05
2018-07-14T09:40:00.830Z,23.00
2018-07-14T09:42:29.176Z,22.96
2018-07-14T09:44:57.628Z,22.89
2018-07-14T09:47:26.023Z,22.89
2018-07-14T09:49:54.368Z,23.01
2018-07-14T09:52:22.749Z,23.13
2018-07-14T09:54:51.091Z,23.14
2018-07-14T09:57:19.528Z,23.09
2018-07-14T09:59:47.871Z,23.04
2018-07-14T10:02:16.237Z,23.03
2018-07-14T10:04:44.612Z,23.14
2018-07-14T10:07:13.009Z,23.22
2018-07-14T10:09:41.574Z,23.21
2018-07-14T10:12:09.967Z,23.16
2018-07-14T10:14:38.368Z,23.08
2018-07-14T10:17:06.726Z,23.07
2018-07-14T10:19:35.093Z,23.14
2018-07-14T10:22:03.490Z,23.24
2018-07-14T10:24:31.830Z,23.31
2018-07-14T10:27:00.209Z,23.27
2018-07-14T10:29:28.591Z,23.32
2018-07-14T10:31:56.901Z,23.33
2018-07-14T10:34:25.660Z,23.34
2018-07-14T10:36:54.022Z,23.35
2018-07-14T10:39:22.364Z,23.35
2018-07-14T10:41:50.715Z,23.38
2018-07-14T10:44:19.045Z,23.45
2018-07-14T10:46:47.406Z,23.51
2018-07-14T10:49:15.897Z,23.50
2018-07-14T10:51:44.246Z,23.49
2018-07-14T10:54:12.873Z,23.57
2018-07-14T10:56:41.253Z,23.62
2018-07-14T10:59:09.592Z,23.68
2018-07-14T11:01:38.135Z,23.63
2018-07-14T11:04:06.491Z,23.64
2018-07-14T11:06:34.871Z,23.60
2018-07-14T11:09:03.559Z,23.61
2018-07-14T11:11:31.881Z,23.69
2018-07-14T11:14:00.283Z,23.72
2018-07-14T11:16:28.636Z,23.82
2018-07-14T11:18:57.150Z,23.83
2018-07-14T11:21:25.632Z,23.86
2018-07-14T11:23:54.036Z,23.88
2018-07-14T11:26:22.409Z,23.86
2018-07-14T11:28:51.146Z,23.95
2018-07-14T11:31:19.583Z,24.02
2018-07-14T11:33:48.007Z,24.13
2018-07-14T11:36:16.358Z,24.18
2018-07-14T11:38:44.747Z,24.25
2018-07-14T11:41:13.081Z,24.32
2018-07-14T11:43:41.553Z,24.34
2018-07-14T11:46:09.931Z,24.25
2018-07-14T11:48:38.268Z,24.21
2018-07-14T11:51:06.795Z,24.22
2018-07-14T11:53:35.137Z,24.34
2018-07-14T11:56:03.492Z,24.46
2018-07-14T11:58:31.815Z,24.67
2018-07-14T12:03:13.031Z,25.11
2018-07-14T12:05:41.378Z,25.13
2018-07-14T12:08:09.783Z,25.19
2018-07-14T12:10:38.167Z,25.19
2018-07-14T12:13:06.667Z,25.03
2018-07-14T12:15:34.993Z,24.87
2018-07-14T12:18:03.521Z,24.78
2018-07-14T12:20:31.864Z,24.73
2018-07-14T12:23:00.189Z,24.79
2018-07-14T12:25:28.528Z,24.93
2018-07-14T12:27:56.906Z,25.03
2018-07-14T12:30:25.314Z,25.15
2018-07-14T12:32:53.867Z,25.25
2018-07-14T12:35:22.229Z,25.30
2018-07-14T12:37:50.537Z,25.31
2018-07-14T12:40:18.860Z,25.40
2018-07-14T12:42:47.216Z,25.54
2018-07-14T12:45:15.538Z,25.73
2018-07-14T12:47:43.869Z,25.86
2018-07-14T12:50:12.179Z,25.84
2018-07-14T12:52:40.544Z,25.80
2018-07-14T12:55:08.883Z,25.68
2018-07-14T12:57:37.223Z,25.63
2018-07-14T13:00:06.083Z,25.55
2018-07-14T13:02:34.406Z,25.51
2018-07-14T13:05:02.769Z,25.34
2018-07-14T13:07:31.159Z,25.13
2018-07-14T13:09:59.477Z,24.97
2018-07-14T13:12:27.807Z,24.97
2018-07-14T13:14:56.532Z,25.09
2018-07-14T13:17:24.890Z,25.30
2018-07-14T13:19:53.211Z,25.38
2018-07-14T13:22:21.525Z,25.38
2018-07-14T13:24:49.876Z,25.31
2018-07-14T13:27:18.193Z,25.35
2018-07-14T13:29:46.544Z,25.46
2018-07-14T13:32:14.875Z,25.57
2018-07-14T13:34:43.169Z,25.60
2018-07-14T13:37:11.506Z,25.54
2018-07-14T13:39:39.794Z,25.50
2018-07-14T13:42:08.130Z,25.52
2018-07-14T13:44:36.520Z,25.48
2018-07-14T13:47:05.084Z,25.38
2018-07-14T13:49:33.391Z,25.32
2018-07-14T13:52:01.763Z,25.26
2018-07-14T13:54:30.101Z,25.31
2018-07-14T13:56:58.566Z,25.41
2018-07-14T13:59:26.909Z,25.57
2018-07-14T14:01:55.215Z,25.45
2018-07-14T14:04:23.541Z,25.36
2018-07-14T14:06:51.924Z,25.38
2018-07-14T14:09:20.245Z,25.43
2018-07-14T14:11:48.602Z,25.33
2018-07-14T14:14:16.914Z,25.27
2018-07-14T14:16:45.270Z,25.15
2018-07-14T14:19:13.624Z,25.00
2018-07-14T14:21:41.990Z,24.92
2018-07-14T14:24:10.323Z,24.90
2018-07-14T14:26:39.729Z,25.01
2018-07-14T14:29:08.309Z,25.18
2018-07-14T14:31:36.660Z,25.29
2018-07-14T14:34:05.020Z,25.47
2018-07-14T14:36:33.386Z,25.60
2018-07-14T14:39:01.800Z,25.70
2018-07-14T14:41:30.091Z,25.79
2018-07-14T14:43:58.432Z,25.91
2018-07-14T14:46:26.752Z,25.90
2018-07-14T14:48:55.121Z,25.87
2018-07-14T14:51:23.576Z,25.78
2018-07-14T14:53:51.924Z,25.72
2018-07-14T14:56:20.287Z,25.63
2018-07-14T14:58:48.860Z,25.66
2018-07-14T15:01:17.196Z,25.68
2018-07-14T15:03:45.553Z,25.68
2018-07-14T15:06:14.845Z,25.67
2018-07-14T15:08:43.182Z,25.70
2018-07-14T15:11:11.531Z,25.76
2018-07-14T15:13:40.074Z,25.82
2018-07-14T15:16:08.399Z,25.86
2018-07-14T15:18:36.722Z,25.81
2018-07-14T15:21:05.129Z,25.78
2018-07-14T15:23:33.566Z,25.79
2018-07-14T15:26:01.884Z,25.78
2018-07-14T15:28:30.214Z,25.80
2018-07-14T15:30:58.591Z,25.80
2018-07-14T15:33:26.977Z,25.83
2018-07-14T15:35:55.298Z,25.85
2018-07-14T15:38:23.601Z,25.89
2018-07-14T15:40:51.965Z,25.92
2018-07-14T15:43:20.281Z,25.97
2018-07-14T15:45:48.592Z,26.07
2018-07-14T15:48:16.983Z,26.14
2018-07-14T15:50:45.321Z,26.07
2018-07-14T15:53:13.820Z,25.98
2018-07-14T15:55:42.136Z,25.90
2018-07-14T15:58:10.667Z,25.78
2018-07-14T16:00:38.989Z,25.65
2018-07-14T16:03:07.452Z,25.58
2018-07-14T16:05:35.810Z,25.56
2018-07-14T16:08:04.167Z,25.57
2018-07-14T16:10:32.506Z,25.58
2018-07-14T16:13:00.807Z,25.64
2018-07-14T16:15:29.155Z,25.73
2018-07-14T16:17:57.507Z,25.78
2018-07-14T16:20:25.876Z,25.83
2018-07-14T16:22:54.217Z,25.85
2018-07-14T16:25:22.589Z,25.87
2018-07-14T16:27:50.921Z,25.84
2018-07-14T16:30:19.193Z,25.84
2018-07-14T16:32:47.551Z,25.84
2018-07-14T16:35:15.902Z,25.84
2018-07-14T16:37:44.228Z,25.79
2018-07-14T16:40:12.672Z,25.78
2018-07-14T16:42:40.975Z,25.74
2018-07-14T16:45:09.314Z,25.58
2018-07-14T16:47:37.635Z,25.50
2018-07-14T16:50:06.065Z,25.42
2018-07-14T16:52:34.372Z,25.39
2018-07-14T16:55:02.733Z,25.42
2018-07-14T16:57:31.099Z,25.39
2018-07-14T16:59:59.438Z,25.38
2018-07-14T17:02:27.760Z,25.37
2018-07-14T17:04:56.130Z,25.38
2018-07-14T17:07:24.472Z,25.29
2018-07-14T17:09:52.890Z,25.23
2018-07-14T17:12:21.238Z,25.25
2018-07-14T17:14:49.571Z,25.23
2018-07-14T17:17:17.883Z,25.23
2018-07-14T17:19:46.171Z,25.22
2018-07-14T17:22:14.483Z,25.19
2018-07-14T17:24:42.825Z,25.20
2018-07-14T17:27:11.174Z,25.14
2018-07-14T17:29:39.636Z,25.10
2018-07-14T17:32:08.204Z,25.07
2018-07-14T17:34:36.522Z,25.03
2018-07-14T17:37:04.846Z,24.97
2018-07-14T17:39:33.165Z,24.94
2018-07-14T17:42:01.512Z,24.91
2018-07-14T17:44:29.818Z,24.90
2018-07-14T17:46:58.149Z,24.88
2018-07-14T17:49:26.765Z,24.84
2018-07-14T17:51:55.118Z,24.82
2018-07-14T17:54:23.368Z,24.81
2018-07-14T17:56:51.879Z,24.76
2018-07-14T17:59:20.217Z,24.73
2018-07-14T18:01:48.901Z,24.71
2018-07-14T18:04:17.301Z,24.66
2018-07-14T18:06:45.648Z,24.64
2018-07-14T18:09:13.975Z,24.62
2018-07-14T18:11:42.294Z,24.59
2018-07-14T18:14:10.638Z,24.53
2018-07-14T18:16:38.977Z,24.49
2018-07-14T18:19:07.338Z,24.46
2018-07-14T18:21:35.691Z,24.43
2018-07-14T18:24:04.035Z,24.39
2018-07-14T18:26:32.429Z,24.34
2018-07-14T18:29:00.747Z,24.30
2018-07-14T18:31:29.111Z,24.27
2018-07-14T18:33:57.450Z,24.24
2018-07-14T18:36:25.811Z,24.18
2018-07-14T18:38:54.225Z,24.14
2018-07-14T18:41:22.612Z,24.09
2018-07-14T18:43:51.033Z,24.06
2018-07-14T18:46:19.439Z,24.02
2018-07-14T18:48:47.782Z,23.96
2018-07-14T18:51:16.116Z,23.91
2018-07-14T18:53:44.714Z,23.89
2018-07-14T18:56:13.024Z,23.82
2018-07-14T18:58:41.387Z,23.76
2018-07-14T19:01:09.725Z,23.69
2018-07-14T19:03:38.054Z,23.63
2018-07-14T19:06:06.384Z,23.54
2018-07-14T19:08:34.751Z,23.50
2018-07-14T19:11:03.391Z,23.47
2018-07-14T19:13:31.734Z,23.42
2018-07-14T19:16:00.448Z,23.37
2018-07-14T19:18:28.860Z,23.30
2018-07-14T19:20:57.279Z,23.25
2018-07-14T19:23:25.597Z,23.19
2018-07-14T19:25:53.937Z,23.10
2018-07-14T19:28:22.234Z,23.03
2018-07-14T19:30:50.572Z,22.98
2018-07-14T19:33:18.908Z,22.93
2018-07-14T19:35:47.275Z,22.90
2018-07-14T19:38:15.611Z,22.83
2018-07-14T19:40:43.973Z,22.76
2018-07-14T19:43:12.324Z,22.69
2018-07-14T19:45:40.652Z,22.63
2018-07-14T19:48:08.950Z,22.57
2018-07-14T19:50:37.452Z,22.52
2018-07-14T19:53:05.781Z,22.46
2018-07-14T19:55:35.667Z,22.38
2018-07-14T19:58:02.460Z,22.32
2018-07-14T20:00:30.808Z,22.27
2018-07-14T20:02:59.133Z,22.24
2018-07-14T20:05:27.485Z,22.16
2018-07-14T20:07:55.833Z,22.11
2018-07-14T20:10:25.039Z,22.03
2018-07-14T20:12:53.440Z,21.99
2018-07-14T20:15:21.764Z,21.95
2018-07-14T20:17:50.100Z,21.89
2018-07-14T20:20:18.552Z,21.83
2018-07-14T20:22:46.852Z,21.76
2018-07-14T20:25:15.236Z,21.71
2018-07-14T20:27:43.551Z,21.66
2018-07-14T20:30:11.899Z,21.61
2018-07-14T20:32:40.287Z,21.56
2018-07-14T20:35:08.640Z,21.52
2018-07-14T20:37:37.003Z,21.49
2018-07-14T20:40:05.392Z,21.46
2018-07-14T20:42:33.722Z,21.39
2018-07-14T20:45:02.084Z,21.32
2018-07-14T20:47:30.431Z,21.26
2018-07-14T20:49:58.805Z,21.19
2018-07-14T20:52:27.155Z,21.11
2018-07-14T20:54:55.476Z,21.05
2018-07-14T20:57:23.758Z,21.01
2018-07-14T20:59:52.112Z,20.96
2018-07-14T21:02:20.390Z,20.92
2018-07-14T21:04:48.700Z,20.86
2018-07-14T21:07:16.994Z,20.83
2018-07-14T21:09:45.525Z,20.80
2018-07-14T21:12:13.894Z,20.74
2018-07-14T21:14:42.218Z,20.70
2018-07-14T21:17:10.559Z,20.65
2018-07-14T21:19:38.888Z,20.62
2018-07-14T21:22:07.331Z,20.59
2018-07-14T21:24:35.630Z,20.54
2018-07-14T21:27:04.016Z,20.50
2018-07-14T21:29:32.359Z,20.46
2018-07-14T21:32:00.728Z,20.43
2018-07-14T21:34:29.074Z,20.37
2018-07-14T21:36:57.373Z,20.34
2018-07-14T21:39:25.724Z,20.27
2018-07-14T21:41:54.059Z,20.23
2018-07-14T21:44:22.421Z,20.17
2018-07-14T21:46:50.753Z,20.14
2018-07-14T21:49:19.100Z,20.10
2018-07-14T21:51:47.611Z,20.05
2018-07-14T21:54:15.987Z,20.03
2018-07-14T21:56:44.269Z,20.02
2018-07-14T21:59:12.695Z,19.98
2018-07-14T22:01:46.226Z,19.93
2018-07-14T22:04:14.576Z,19.88
2018-07-14T22:06:42.882Z,19.83
2018-07-14T22:09:11.219Z,19.74
2018-07-14T22:11:39.551Z,19.73
2018-07-14T22:14:07.856Z,19.72
2018-07-14T22:16:36.185Z,19.71
2018-07-14T22:19:04.491Z,19.69
2018-07-14T22:21:33.016Z,19.67
2018-07-14T22:24:01.496Z,19.66
2018-07-14T22:26:29.864Z,19.63
2018-07-14T22:28:58.349Z,19.61
2018-07-14T22:31:26.864Z,19.56
2018-07-14T22:33:55.278Z,19.47
2018-07-14T22:36:23.610Z,19.42
2018-07-14T22:38:51.925Z,19.39
2018-07-14T22:41:20.229Z,19.35
2018-07-14T22:43:48.588Z,19.31
2018-07-14T22:46:17.019Z,19.32
2018-07-14T22:48:45.332Z,19.30
2018-07-14T22:51:13.708Z,19.24
2018-07-14T22:53:42.062Z,19.19
2018-07-14T22:56:10.384Z,19.15
2018-07-14T22:58:38.769Z,19.15
2018-07-14T23:01:07.415Z,19.16
2018-07-14T23:03:35.834Z,19.11
2018-07-14T23:06:04.148Z,19.06
2018-07-14T23:08:32.493Z,19.01
2018-07-14T23:11:01.708Z,18.97
2018-07-14T23:13:30.068Z,18.91
2018-07-14T23:15:58.406Z,18.88
2018-07-14T23:18:26.769Z,18.86
2018-07-14T23:20:55.196Z,18.84
2018-07-14T23:23:23.523Z,18.78
2018-07-14T23:25:51.893Z,18.73
2018-07-14T23:28:20.212Z,18.70
2018-07-14T23:30:49.217Z,18.66
2018-07-14T23:33:17.537Z,18.65
2018-07-14T23:35:45.873Z,18.63
2018-07-14T23:38:14.195Z,18.59
2018-07-14T23:40:42.526Z,18.57
2018-07-14T23:43:10.854Z,18.56
2018-07-14T23:45:39.208Z,18.54
2018-07-14T23:48:07.565Z,18.51
2018-07-14T23:50:35.899Z,18.46
2018-07-14T23:53:04.237Z,18.42
2018-07-14T23:55:32.567Z,18.34
2018-07-14T23:58:00.906Z,18.27
